sensor_id;sensor_type;location;lat;lon;timestamp;pressure;altitude;pressure_sealevel;temperature;humidity
58975;BME280;44751;52.236;5.178;2023-04-05T13:51:51;101983.44;;;14.42;46.61
58975;BME280;44751;52.236;5.178;2023-04-05T13:54:17;101980.34;;;14.53;46.08
58975;BME280;44751;52.236;5.178;2023-04-05T13:56:45;101982.59;;;14.73;47.74
58975;BME280;44751;52.236;5.178;2023-04-05T13:59:14;101984.84;;;14.61;47.56
58975;BME280;44751;52.236;5.178;2023-04-05T14:01:44;101984.91;;;14.53;48.31
58975;BME280;44751;52.236;5.178;2023-04-05T14:04:10;101984.94;;;13.96;47.99
58975;BME280;44751;52.236;5.178;2023-04-05T14:06:37;101985.34;;;13.35;48.46
58975;BME280;44751;52.236;5.178;2023-04-05T14:09:03;101978.06;;;13.43;48.74
58975;BME280;44751;52.236;5.178;2023-04-05T14:11:33;101984.16;;;13.21;48.43
58975;BME280;44751;52.236;5.178;2023-04-05T14:14:01;101973.59;;;14.01;48.25
58975;BME280;44751;52.236;5.178;2023-04-05T14:16:28;101976.94;;;14.11;48.66
58975;BME280;44751;52.236;5.178;2023-04-05T14:18:55;101962.00;;;14.15;48.85
58975;BME280;44751;52.236;5.178;2023-04-05T14:21:23;101962.00;;;14.15;48.57
58975;BME280;44751;52.236;5.178;2023-04-05T14:23:58;101953.63;;;13.77;48.51
58975;BME280;44751;52.236;5.178;2023-04-05T14:26:26;101958.78;;;13.55;47.90
58975;BME280;44751;52.236;5.178;2023-04-05T14:28:53;101953.31;;;13.72;48.05
58975;BME280;44751;52.236;5.178;2023-04-05T14:31:20;101949.91;;;13.86;49.48
58975;BME280;44751;52.236;5.178;2023-04-05T14:33:49;101948.97;;;14.11;49.28
58975;BME280;44751;52.236;5.178;2023-04-05T14:36:15;101948.09;;;14.10;48.73
58975;BME280;44751;52.236;5.178;2023-04-05T14:38:42;101941.22;;;13.91;47.20
58975;BME280;44751;52.236;5.178;2023-04-05T14:41:18;101941.13;;;14.16;47.07
58975;BME280;44751;52.236;5.178;2023-04-05T14:43:45;101939.25;;;14.48;48.58
58975;BME280;44751;52.236;5.178;2023-04-05T14:46:12;101943.22;;;14.37;47.25
58975;BME280;44751;52.236;5.178;2023-04-05T14:48:38;101941.97;;;13.60;47.99
58975;BME280;44751;52.236;5.178;2023-04-05T14:51:07;101936.00;;;13.81;48.74
58975;BME280;44751;52.236;5.178;2023-04-05T14:53:40;101937.81;;;13.97;48.86
58975;BME280;44751;52.236;5.178;2023-04-05T14:56:09;101927.00;;;13.89;48.86
58975;BME280;44751;52.236;5.178;2023-04-05T14:58:36;101921.09;;;14.25;49.59
58975;BME280;44751;52.236;5.178;2023-04-05T15:01:03;101918.94;;;14.44;48.73
58975;BME280;44751;52.236;5.178;2023-04-05T15:03:32;101915.78;;;13.92;49.13
58975;BME280;44751;52.236;5.178;2023-04-05T15:06:06;101916.16;;;13.89;50.55
58975;BME280;44751;52.236;5.178;2023-04-05T15:08:33;101909.84;;;13.97;48.62
58975;BME280;44751;52.236;5.178;2023-04-05T15:11:00;101918.94;;;14.12;48.92
58975;BME280;44751;52.236;5.178;2023-04-05T15:13:26;101906.34;;;13.71;49.71
58975;BME280;44751;52.236;5.178;2023-04-05T15:15:53;101907.44;;;13.53;50.14
58975;BME280;44751;52.236;5.178;2023-04-05T15:18:24;101908.81;;;13.16;49.49
58975;BME280;44751;52.236;5.178;2023-04-05T15:20:50;101894.72;;;13.37;51.27
58975;BME280;44751;52.236;5.178;2023-04-05T15:23:17;101901.34;;;13.26;49.66
58975;BME280;44751;52.236;5.178;2023-04-05T15:25:44;101901.00;;;13.38;50.44
58975;BME280;44751;52.236;5.178;2023-04-05T15:28:18;101897.41;;;13.46;50.81
58975;BME280;44751;52.236;5.178;2023-04-05T15:30:45;101893.72;;;13.38;49.03
58975;BME280;44751;52.236;5.178;2023-04-05T15:33:12;101901.13;;;13.45;50.09
58975;BME280;44751;52.236;5.178;2023-04-05T15:35:39;101898.97;;;13.32;49.41
58975;BME280;44751;52.236;5.178;2023-04-05T15:38:07;101885.91;;;13.35;50.90
58975;BME280;44751;52.236;5.178;2023-04-05T15:40:37;101903.22;;;12.93;50.01
58975;BME280;44751;52.236;5.178;2023-04-05T15:43:06;101896.59;;;12.78;50.90
58975;BME280;44751;52.236;5.178;2023-04-05T15:45:33;101898.47;;;12.70;50.40
58975;BME280;44751;52.236;5.178;2023-04-05T15:48:00;101890.69;;;12.91;51.06
58975;BME280;44751;52.236;5.178;2023-04-05T15:50:46;101881.38;;;13.02;51.01
58975;BME280;44751;52.236;5.178;2023-04-05T17:21:21;101843.91;;;11.36;53.84
58975;BME280;44751;52.236;5.178;2023-04-05T17:23:50;101843.00;;;11.28;55.13
58975;BME280;44751;52.236;5.178;2023-04-05T17:26:19;101846.31;;;11.21;55.91
58975;BME280;44751;52.236;5.178;2023-04-05T17:28:47;101849.22;;;11.20;55.30
58975;BME280;44751;52.236;5.178;2023-04-05T17:31:15;101854.00;;;11.08;55.49
58975;BME280;44751;52.236;5.178;2023-04-05T17:33:43;101851.56;;;10.96;54.98
58975;BME280;44751;52.236;5.178;2023-04-05T17:36:09;101845.94;;;10.90;56.22
58975;BME280;44751;52.236;5.178;2023-04-05T17:38:35;101846.94;;;10.89;55.63
58975;BME280;44751;52.236;5.178;2023-04-05T17:41:02;101848.44;;;10.83;55.32
58975;BME280;44751;52.236;5.178;2023-04-05T17:43:29;101843.34;;;10.62;55.36
58975;BME280;44751;52.236;5.178;2023-04-05T17:45:55;101854.00;;;10.63;55.53
58975;BME280;44751;52.236;5.178;2023-04-05T17:48:24;101846.56;;;10.47;55.58
58975;BME280;44751;52.236;5.178;2023-04-05T17:50:51;101849.75;;;10.61;56.73
58975;BME280;44751;52.236;5.178;2023-04-05T17:53:17;101857.38;;;10.47;55.64
58975;BME280;44751;52.236;5.178;2023-04-05T17:55:44;101850.69;;;10.51;56.08
58975;BME280;44751;52.236;5.178;2023-04-05T17:58:11;101846.94;;;10.34;56.54
58975;BME280;44751;52.236;5.178;2023-04-05T18:00:41;101841.00;;;10.30;57.43
58975;BME280;44751;52.236;5.178;2023-04-05T18:03:09;101842.22;;;10.18;59.24
58975;BME280;44751;52.236;5.178;2023-04-05T18:05:35;101841.44;;;10.07;60.82
58975;BME280;44751;52.236;5.178;2023-04-05T18:08:02;101845.34;;;9.95;61.64
58975;BME280;44751;52.236;5.178;2023-04-05T18:10:29;101846.41;;;10.02;58.41
58975;BME280;44751;52.236;5.178;2023-04-05T18:12:55;101848.28;;;9.74;61.70
58975;BME280;44751;52.236;5.178;2023-04-05T18:15:26;101860.53;;;9.58;62.33
58975;BME280;44751;52.236;5.178;2023-04-05T18:17:55;101851.63;;;9.48;64.27
58975;BME280;44751;52.236;5.178;2023-04-05T18:20:22;101846.56;;;9.45;66.58
58975;BME280;44751;52.236;5.178;2023-04-05T18:22:48;101846.31;;;9.28;68.25
58975;BME280;44751;52.236;5.178;2023-04-05T18:25:18;101844.91;;;9.14;69.59
58975;BME280;44751;52.236;5.178;2023-04-05T18:27:44;101846.94;;;9.12;70.02
58975;BME280;44751;52.236;5.178;2023-04-05T18:30:12;101856.72;;;9.03;69.04
58975;BME280;44751;52.236;5.178;2023-04-05T18:32:39;101869.34;;;8.93;72.15
58975;BME280;44751;52.236;5.178;2023-04-05T18:35:07;101863.66;;;8.96;72.09
58975;BME280;44751;52.236;5.178;2023-04-05T18:37:36;101852.47;;;8.81;74.93
58975;BME280;44751;52.236;5.178;2023-04-05T18:40:03;101855.63;;;8.66;77.38
58975;BME280;44751;52.236;5.178;2023-04-05T18:42:30;101860.16;;;8.65;79.69
58975;BME280;44751;52.236;5.178;2023-04-05T18:44:58;101855.31;;;8.49;79.11
58975;BME280;44751;52.236;5.178;2023-04-05T18:47:25;101852.59;;;8.39;81.56
58975;BME280;44751;52.236;5.178;2023-04-05T18:50:00;101857.25;;;8.37;80.30
58975;BME280;44751;52.236;5.178;2023-04-05T18:52:27;101864.63;;;8.25;83.82
58975;BME280;44751;52.236;5.178;2023-04-05T18:55:15;101864.59;;;8.16;84.73
58975;BME280;44751;52.236;5.178;2023-04-05T18:57:49;101855.38;;;8.08;86.83
58975;BME280;44751;52.236;5.178;2023-04-05T19:00:19;101868.09;;;8.06;89.00
58975;BME280;44751;52.236;5.178;2023-04-05T19:02:49;101871.47;;;7.98;89.47
58975;BME280;44751;52.236;5.178;2023-04-05T19:05:16;101877.97;;;7.96;88.31
58975;BME280;44751;52.236;5.178;2023-04-05T19:07:43;101870.88;;;7.85;90.18
58975;BME280;44751;52.236;5.178;2023-04-05T19:10:10;101880.03;;;7.82;89.00
58975;BME280;44751;52.236;5.178;2023-04-05T19:12:37;101877.78;;;7.78;90.76
58975;BME280;44751;52.236;5.178;2023-04-05T19:15:15;101880.47;;;7.78;91.64
58975;BME280;44751;52.236;5.178;2023-04-05T19:17:42;101875.88;;;7.68;93.16
58975;BME280;44751;52.236;5.178;2023-04-05T19:20:09;101882.63;;;7.62;95.00
58975;BME280;44751;52.236;5.178;2023-04-05T19:22:42;101874.41;;;7.54;95.74
58975;BME280;44751;52.236;5.178;2023-04-05T19:25:09;101864.78;;;7.52;96.97
58975;BME280;44751;52.236;5.178;2023-04-05T19:27:36;101874.34;;;7.44;100.00
58975;BME280;44751;52.236;5.178;2023-04-05T19:30:16;101867.34;;;7.32;100.00
58975;BME280;44751;52.236;5.178;2023-04-05T19:32:51;101864.22;;;7.27;100.00
58975;BME280;44751;52.236;5.178;2023-04-05T19:35:19;101856.72;;;7.20;100.00
58975;BME280;44751;52.236;5.178;2023-04-05T19:37:45;101857.97;;;7.16;100.00
58975;BME280;44751;52.236;5.178;2023-04-05T19:40:19;101860.03;;;7.13;100.00
58975;BME280;44751;52.236;5.178;2023-04-05T19:42:47;101866.41;;;7.12;100.00
58975;BME280;44751;52.236;5.178;2023-04-05T19:45:28;101861.22;;;6.98;100.00
58975;BME280;44751;52.236;5.178;2023-04-05T19:48:00;101857.63;;;6.88;100.00
58975;BME280;44751;52.236;5.178;2023-04-05T19:50:44;101858.88;;;6.84;100.00
58975;BME280;44751;52.236;5.178;2023-04-05T19:56:15;101857.56;;;6.78;100.00
58975;BME280;44751;52.236;5.178;2023-04-05T19:58:44;101852.78;;;6.82;100.00
58975;BME280;44751;52.236;5.178;2023-04-05T20:01:33;101852.91;;;6.80;100.00
58975;BME280;44751;52.236;5.178;2023-04-05T20:04:03;101853.69;;;7.14;97.89
58975;BME280;44751;52.236;5.178;2023-04-05T20:06:40;101848.19;;;6.94;100.00
58975;BME280;44751;52.236;5.178;2023-04-05T20:09:09;101851.72;;;6.73;100.00
58975;BME280;44751;52.236;5.178;2023-04-05T20:11:46;101841.25;;;6.70;100.00
58975;BME280;44751;52.236;5.178;2023-04-05T20:14:38;101835.22;;;6.56;100.00
58975;BME280;44751;52.236;5.178;2023-04-05T20:17:17;101848.41;;;6.48;100.00
58975;BME280;44751;52.236;5.178;2023-04-05T20:19:54;101835.38;;;6.11;100.00
58975;BME280;44751;52.236;5.178;2023-04-05T20:22:27;101837.06;;;6.12;100.00
58975;BME280;44751;52.236;5.178;2023-04-05T20:24:54;101834.50;;;6.10;100.00
58975;BME280;44751;52.236;5.178;2023-04-05T20:27:24;101830.34;;;6.17;100.00
58975;BME280;44751;52.236;5.178;2023-04-05T20:29:51;101824.53;;;6.12;100.00
58975;BME280;44751;52.236;5.178;2023-04-05T20:32:21;101833.78;;;6.08;100.00
58975;BME280;44751;52.236;5.178;2023-04-05T20:34:59;101824.63;;;5.99;100.00
58975;BME280;44751;52.236;5.178;2023-04-05T20:37:26;101820.16;;;5.88;100.00
58975;BME280;44751;52.236;5.178;2023-04-05T20:39:55;101820.75;;;5.80;100.00
58975;BME280;44751;52.236;5.178;2023-04-05T20:42:26;101814.56;;;5.80;100.00
58975;BME280;44751;52.236;5.178;2023-04-05T20:44:56;101814.56;;;5.68;100.00
58975;BME280;44751;52.236;5.178;2023-04-05T20:47:23;101818.22;;;5.67;100.00
58975;BME280;44751;52.236;5.178;2023-04-05T20:49:51;101826.63;;;5.63;100.00
58975;BME280;44751;52.236;5.178;2023-04-05T20:52:31;101822.97;;;5.52;100.00
58975;BME280;44751;52.236;5.178;2023-04-05T20:54:58;101815.66;;;5.43;100.00
58975;BME280;44751;52.236;5.178;2023-04-05T20:57:32;101807.41;;;5.35;100.00
58975;BME280;44751;52.236;5.178;2023-04-05T21:00:00;101806.19;;;5.39;100.00
58975;BME280;44751;52.236;5.178;2023-04-05T21:02:36;101807.75;;;5.41;100.00
